Time;durP1;ratioP1;P1;durP2;ratioP2;P2;SDS_P1;SDS_P2;PMS_P1;PMS_P2;Temp;Humidity;BMP_temperature;BMP_pressure;BME280_temperature;BME280_humidity;BME280_pressure;Samples;Min_cycle;Max_cycle;Signal;HPM_P1;HPM_P2
2023/03/06 00:02:44;;;;;;;;;;;;;;;17.81;61.30;99861.80;2202339;78;51088;-74
2023/03/06 00:05:45;;;;;;;;;;;;;;;17.87;61.05;99852.97;2263737;77;50591;-75
2023/03/06 00:08:47;;;;;;;;;;;;;;;17.93;60.82;99851.35;2264332;77;50776;-74
2023/03/06 00:11:48;;;;;;;;;;;;;;;17.93;60.72;99856.22;2241411;78;50886;-74
2023/03/06 00:14:50;;;;;;;;;;;;;;;17.93;60.67;99853.54;2239331;78;51637;-74
2023/03/06 00:17:51;;;;;;;;;;;;;;;17.91;60.72;99842.20;2263695;78;51601;-74
2023/03/06 00:20:53;;;;;;;;;;;;;;;17.87;60.76;99843.61;2264090;77;51533;-74
2023/03/06 00:23:55;;;;;;;;;;;;;;;17.81;60.89;99835.05;2263896;78;51555;-75
2023/03/06 00:26:56;;;;;;;;;;;;;;;17.77;60.93;99832.41;2241061;78;51065;-74
2023/03/06 00:29:58;;;;;;;;;;;;;;;17.75;60.99;99839.80;2263880;78;51453;-74
2023/03/06 00:33:00;;;;;;;;;;;;;;;17.70;61.04;99829.71;2276747;77;51530;-75
2023/03/06 00:36:03;;;;;;;;;;;;;;;17.66;61.25;99816.92;2263697;78;51549;-76
2023/03/06 00:39:04;;;;;;;;;;;;;;;17.69;61.23;99822.69;2240794;78;51699;-75
2023/03/06 00:42:06;;;;;;;;;;;;;;;17.77;61.28;99820.36;2264032;78;51504;-75
2023/03/06 00:45:08;;;;;;;;;;;;;;;17.85;61.25;99821.56;2263848;77;51430;-75
2023/03/06 00:48:09;;;;;;;;;;;;;;;17.91;61.00;99802.05;2263898;78;50452;-75
2023/03/06 00:51:11;;;;;;;;;;;;;;;17.93;60.88;99791.98;2240958;78;49600;-76
2023/03/06 00:54:12;;;;;;;;;;;;;;;17.94;60.80;99786.93;2263871;77;50370;-75
2023/03/06 00:57:14;;;;;;;;;;;;;;;17.93;60.77;99783.95;2264087;77;50513;-76
2023/03/06 01:00:16;;;;;;;;;;;;;;;17.90;60.89;99778.97;2264610;77;50739;-73
2023/03/06 01:03:17;;;;;;;;;;;;;;;17.89;61.08;99769.30;2212913;78;50066;-74
2023/03/06 01:06:19;;;;;;;;;;;;;;;17.87;61.08;99770.02;2261404;78;50428;-74
2023/03/06 01:09:20;;;;;;;;;;;;;;;17.81;61.12;99766.29;2261611;78;50595;-74
2023/03/06 01:12:22;;;;;;;;;;;;;;;17.76;61.12;99768.70;2261705;78;50466;-74
2023/03/06 01:15:24;;;;;;;;;;;;;;;17.73;61.26;99761.60;2263765;78;51032;-74
2023/03/06 01:18:25;;;;;;;;;;;;;;;17.74;61.35;99757.89;2261247;78;51574;-74
2023/03/06 01:21:27;;;;;;;;;;;;;;;17.79;61.35;99746.92;2261584;78;51493;-74
2023/03/06 01:24:29;;;;;;;;;;;;;;;17.86;61.03;99745.62;2256336;78;51531;-74
2023/03/06 01:27:30;;;;;;;;;;;;;;;17.90;60.87;99733.48;2254511;78;51069;-73
2023/03/06 01:30:32;;;;;;;;;;;;;;;17.90;60.82;99727.30;2226915;79;51521;-75
2023/03/06 01:33:33;;;;;;;;;;;;;;;17.86;60.85;99725.55;2282440;76;50466;-75
2023/03/06 01:36:35;;;;;;;;;;;;;;;17.83;60.85;99711.25;2305411;77;51485;-75
2023/03/06 01:39:37;;;;;;;;;;;;;;;17.78;60.92;99705.64;2279200;77;52540;-73
2023/03/06 01:42:38;;;;;;;;;;;;;;;17.74;60.98;99703.86;2305062;77;50500;-74
2023/03/06 01:45:41;;;;;;;;;;;;;;;17.71;60.99;99700.77;2305436;77;50435;-74
2023/03/06 01:48:43;;;;;;;;;;;;;;;17.67;61.06;99690.97;2304665;77;50331;-74
2023/03/06 01:51:46;;;;;;;;;;;;;;;17.65;61.08;99683.67;2305346;77;51489;-75
2023/03/06 01:54:52;;;;;;;;;;;;;;;17.67;61.11;99680.27;2281613;77;50814;-74
2023/03/06 01:57:54;;;;;;;;;;;;;;;17.70;61.10;99670.52;2305235;77;51494;-74
2023/03/06 02:00:56;;;;;;;;;;;;;;;17.77;60.90;99672.68;2288716;77;50469;-74
2023/03/06 02:03:58;;;;;;;;;;;;;;;17.85;60.70;99675.72;2284072;77;50425;-74
2023/03/06 02:06:59;;;;;;;;;;;;;;;17.93;60.45;99662.67;2307200;77;50082;-74
2023/03/06 02:10:01;;;;;;;;;;;;;;;17.96;60.42;99667.12;2305012;77;51521;-74
2023/03/06 02:13:02;;;;;;;;;;;;;;;17.97;60.39;99660.73;2305431;77;51509;-74
2023/03/06 02:16:04;;;;;;;;;;;;;;;17.95;60.43;99655.27;2305349;77;50510;-74
2023/03/06 02:19:06;;;;;;;;;;;;;;;17.92;60.53;99651.66;2306960;77;52291;-74
2023/03/06 02:22:08;;;;;;;;;;;;;;;17.89;60.57;99643.52;2305315;77;50556;-74
2023/03/06 02:25:28;;;;;;;;;;;;;;;17.83;60.58;99646.50;2277534;77;50744;-74
2023/03/06 02:28:29;;;;;;;;;;;;;;;17.77;60.70;99639.23;2266756;78;50483;-74
2023/03/06 02:31:31;;;;;;;;;;;;;;;17.71;60.81;99633.36;2214540;78;51110;-74
2023/03/06 02:34:40;;;;;;;;;;;;;;;17.69;60.89;99636.75;2266941;78;51451;-74
2023/03/06 02:37:42;;;;;;;;;;;;;;;17.70;60.95;99633.55;2267000;78;50448;-73
2023/03/06 02:40:44;;;;;;;;;;;;;;;17.77;60.92;99626.38;2266662;78;50759;-73
2023/03/06 02:43:45;;;;;;;;;;;;;;;17.85;60.69;99620.86;2268941;78;49631;-73
2023/03/06 02:46:47;;;;;;;;;;;;;;;17.90;60.59;99626.42;2266862;78;50175;-73
2023/03/06 02:49:49;;;;;;;;;;;;;;;17.89;60.57;99624.80;2266708;78;50763;-73
2023/03/06 02:52:50;;;;;;;;;;;;;;;17.89;60.57;99620.78;2243450;78;50565;-73
2023/03/06 02:55:52;;;;;;;;;;;;;;;17.86;60.61;99618.52;2205671;78;52436;-74
2023/03/06 02:58:53;;;;;;;;;;;;;;;17.83;60.70;99615.73;2194891;80;51585;-74
2023/03/06 03:01:55;;;;;;;;;;;;;;;17.77;60.79;99611.66;2204161;78;51326;-74
2023/03/06 03:04:56;;;;;;;;;;;;;;;17.72;60.84;99606.09;2280054;77;51559;-74
2023/03/06 03:07:58;;;;;;;;;;;;;;;17.68;60.93;99609.70;2296670;77;50246;-73
2023/03/06 03:11:00;;;;;;;;;;;;;;;17.66;60.99;99602.91;2269579;78;50435;-73
2023/03/06 03:14:01;;;;;;;;;;;;;;;17.66;61.09;99602.91;2296934;77;51609;-73
2023/03/06 03:17:03;;;;;;;;;;;;;;;17.70;61.10;99598.77;2297100;77;51465;-73
2023/03/06 03:20:05;;;;;;;;;;;;;;;17.75;60.99;99594.48;2271071;77;51647;-74
2023/03/06 03:23:07;;;;;;;;;;;;;;;17.84;60.86;99596.48;2269553;78;50764;-74
2023/03/06 03:26:10;;;;;;;;;;;;;;;17.92;60.59;99595.46;2268626;78;50744;-74
2023/03/06 03:29:11;;;;;;;;;;;;;;;17.93;60.52;99592.59;2267511;77;50542;-74
2023/03/06 03:32:13;;;;;;;;;;;;;;;17.93;60.51;99590.41;2304548;77;51668;-74
2023/03/06 03:35:14;;;;;;;;;;;;;;;17.92;60.55;99587.44;2243209;77;50689;-74
2023/03/06 03:38:16;;;;;;;;;;;;;;;17.87;60.59;99592.05;2194932;80;50756;-74
2023/03/06 03:41:18;;;;;;;;;;;;;;;17.83;60.76;99586.30;2194983;80;50678;-75
2023/03/06 03:44:19;;;;;;;;;;;;;;;17.80;60.79;99589.87;2199801;80;51487;-75
2023/03/06 03:47:21;;;;;;;;;;;;;;;17.76;60.82;99589.44;2195101;80;51472;-74
2023/03/06 03:50:22;;;;;;;;;;;;;;;17.70;60.88;99584.06;2194554;80;51558;-75
2023/03/06 03:53:24;;;;;;;;;;;;;;;17.67;61.06;99595.17;2222639;80;51501;-75
2023/03/06 03:56:25;;;;;;;;;;;;;;;17.68;61.14;99590.16;2172427;79;52469;-74
2023/03/06 03:59:27;;;;;;;;;;;;;;;17.73;61.16;99582.34;2195394;80;51581;-74
2023/03/06 04:02:29;;;;;;;;;;;;;;;17.81;60.93;99583.52;2230560;77;49611;-75
2023/03/06 04:05:32;;;;;;;;;;;;;;;17.87;60.72;99577.86;2293120;77;51548;-75
2023/03/06 04:08:33;;;;;;;;;;;;;;;17.91;60.59;99583.13;2305860;77;50505;-76
2023/03/06 04:11:35;;;;;;;;;;;;;;;17.89;60.59;99584.66;2306071;77;50780;-75
2023/03/06 04:14:36;;;;;;;;;;;;;;;17.85;60.66;99582.06;2305928;77;51498;-75
2023/03/06 04:17:38;;;;;;;;;;;;;;;17.84;60.69;99585.26;2306103;77;51544;-74
2023/03/06 04:20:40;;;;;;;;;;;;;;;17.81;60.77;99597.71;2276337;77;50735;-74
2023/03/06 04:23:41;;;;;;;;;;;;;;;17.76;60.82;99600.66;2293789;77;51460;-75
2023/03/06 04:26:43;;;;;;;;;;;;;;;17.71;60.84;99601.27;2305483;77;51468;-75
2023/03/06 04:29:44;;;;;;;;;;;;;;;17.67;60.92;99600.00;2305529;75;50417;-74
2023/03/06 04:32:46;;;;;;;;;;;;;;;17.65;61.00;99603.42;2307395;76;49583;-74
2023/03/06 04:35:47;;;;;;;;;;;;;;;17.67;61.09;99607.21;2305645;75;50431;-74
2023/03/06 04:38:49;;;;;;;;;;;;;;;17.72;61.03;99611.44;2305480;77;50420;-75
2023/03/06 04:41:51;;;;;;;;;;;;;;;17.82;60.79;99615.41;2305373;77;50546;-75
2023/03/06 04:44:52;;;;;;;;;;;;;;;17.90;60.55;99615.72;2279736;77;50983;-74
2023/03/06 04:47:54;;;;;;;;;;;;;;;17.91;60.45;99616.05;2306027;77;51584;-74
2023/03/06 04:50:55;;;;;;;;;;;;;;;17.92;60.42;99620.36;2268764;76;51721;-74
2023/03/06 04:53:57;;;;;;;;;;;;;;;17.92;60.36;99612.86;2261360;77;51452;-75
2023/03/06 04:56:58;;;;;;;;;;;;;;;17.89;60.67;99614.09;2307314;77;50985;-72
2023/03/06 05:00:00;;;;;;;;;;;;;;;17.83;60.74;99620.27;2305070;77;50465;-72
2023/03/06 05:03:01;;;;;;;;;;;;;;;17.82;60.94;99615.41;2305693;77;50466;-73
2023/03/06 05:06:03;;;;;;;;;;;;;;;17.79;60.93;99621.66;2305815;77;50386;-73
2023/03/06 05:09:05;;;;;;;;;;;;;;;17.76;60.96;99610.02;2307510;77;49502;-74
2023/03/06 05:12:07;;;;;;;;;;;;;;;17.71;61.06;99613.30;2306317;77;51588;-73
2023/03/06 05:15:08;;;;;;;;;;;;;;;17.72;61.08;99611.44;2306693;76;51524;-74
2023/03/06 05:18:10;;;;;;;;;;;;;;;17.76;60.99;99620.73;2305701;77;50762;-74
2023/03/06 05:21:11;;;;;;;;;;;;;;;17.82;60.73;99626.63;2272385;77;51482;-74
2023/03/06 05:24:13;;;;;;;;;;;;;;;17.85;60.52;99628.89;2263328;78;51567;-74
2023/03/06 05:27:15;;;;;;;;;;;;;;;17.87;60.40;99626.02;2267212;78;51528;-74
2023/03/06 05:30:16;;;;;;;;;;;;;;;17.86;60.31;99627.87;2267107;78;51697;-74
2023/03/06 05:33:18;;;;;;;;;;;;;;;17.84;60.30;99631.27;2294797;77;52350;-74
2023/03/06 05:36:19;;;;;;;;;;;;;;;17.78;60.34;99623.52;2267405;78;51476;-74
2023/03/06 05:39:21;;;;;;;;;;;;;;;17.75;60.42;99628.42;2294776;77;52006;-73
2023/03/06 05:42:23;;;;;;;;;;;;;;;17.70;60.52;99625.53;2295186;77;50862;-73
2023/03/06 05:45:24;;;;;;;;;;;;;;;17.64;60.79;99631.18;2269060;78;51646;-73
2023/03/06 05:52:03;;;;;;;;;;;;;;;17.59;60.77;99635.79;2273985;77;22246;-73
2023/03/06 05:55:05;;;;;;;;;;;;;;;17.63;60.67;99637.05;2267252;78;50507;-73
2023/03/06 05:58:07;;;;;;;;;;;;;;;17.73;60.42;99629.16;2294596;77;51244;-72
2023/03/06 06:01:09;;;;;;;;;;;;;;;17.82;60.35;99636.81;2294749;77;50759;-71
2023/03/06 06:04:11;;;;;;;;;;;;;;;17.86;60.35;99634.57;2272445;77;51496;-71
2023/03/06 06:07:14;;;;;;;;;;;;;;;17.87;60.35;99631.38;2280301;77;51587;-71
2023/03/06 06:10:16;;;;;;;;;;;;;;;17.87;60.20;99634.87;2260987;78;51569;-71
2023/03/06 06:13:18;;;;;;;;;;;;;;;17.86;60.10;99635.09;2264180;78;50793;-72
2023/03/06 06:16:19;;;;;;;;;;;;;;;17.86;60.12;99637.77;2264044;78;50431;-71
2023/03/06 06:19:21;;;;;;;;;;;;;;;17.81;60.19;99634.35;2263786;78;50812;-72
2023/03/06 06:22:23;;;;;;;;;;;;;;;17.78;60.21;99633.39;2241130;78;50057;-71
2023/03/06 06:25:25;;;;;;;;;;;;;;;17.73;60.38;99644.70;2268343;77;51485;-72
2023/03/06 06:28:27;;;;;;;;;;;;;;;17.64;60.60;99640.02;2266437;78;51945;-70
2023/03/06 06:31:29;;;;;;;;;;;;;;;17.64;60.61;99643.22;2267141;77;50200;-71
2023/03/06 06:34:30;;;;;;;;;;;;;;;17.70;60.56;99649.61;2244451;77;49544;-70
2023/03/06 06:37:32;;;;;;;;;;;;;;;17.80;60.32;99651.41;2261100;76;50473;-71
2023/03/06 06:40:33;;;;;;;;;;;;;;;17.86;60.09;99649.81;2221945;79;50422;-71
2023/03/06 06:43:35;;;;;;;;;;;;;;;17.86;59.98;99653.30;2276738;76;50414;-71
2023/03/06 06:46:37;;;;;;;;;;;;;;;17.86;59.94;99655.16;2224595;77;50166;-71
2023/03/06 06:49:38;;;;;;;;;;;;;;;17.85;59.92;99654.31;2279220;77;50668;-71
2023/03/06 06:52:40;;;;;;;;;;;;;;;17.83;59.90;99657.73;2282837;77;50438;-71
2023/03/06 06:55:41;;;;;;;;;;;;;;;17.82;59.91;99656.06;2264252;78;50480;-71
2023/03/06 06:58:43;;;;;;;;;;;;;;;17.78;59.96;99653.46;2240906;78;50125;-71
2023/03/06 07:01:45;;;;;;;;;;;;;;;17.70;60.14;99658.48;2261236;77;51565;-70
2023/03/06 07:04:46;;;;;;;;;;;;;;;17.69;60.19;99658.16;2261160;77;51576;-70
2023/03/06 07:07:50;;;;;;;;;;;;;;;17.70;60.23;99658.48;2281029;77;51500;-71
2023/03/06 07:10:51;;;;;;;;;;;;;;;17.81;60.02;99659.77;2255167;77;49644;-71
2023/03/06 07:13:54;;;;;;;;;;;;;;;17.86;60.28;99653.30;2277959;77;51468;-70
2023/03/06 07:16:57;;;;;;;;;;;;;;;17.92;60.37;99657.83;2275849;77;50245;-72
2023/03/06 07:19:58;;;;;;;;;;;;;;;18.02;59.97;99653.43;2277701;77;51603;-73
2023/03/06 07:23:00;;;;;;;;;;;;;;;18.01;60.05;99657.97;2266909;78;50754;-73
2023/03/06 07:26:02;;;;;;;;;;;;;;;18.01;60.16;99659.30;2266897;78;51468;-72
2023/03/06 07:29:03;;;;;;;;;;;;;;;17.99;60.20;99660.02;2293186;76;51508;-71
2023/03/06 07:32:05;;;;;;;;;;;;;;;17.97;60.37;99658.05;2266770;78;50422;-73
2023/03/06 07:35:07;;;;;;;;;;;;;;;17.95;60.42;99668.13;2268787;78;49666;-73
2023/03/06 07:38:08;;;;;;;;;;;;;;;17.97;60.38;99663.41;2238421;77;51502;-72
2023/03/06 07:41:12;;;;;;;;;;;;;;;17.93;60.40;99662.18;2238656;78;51495;-72
2023/03/06 07:44:13;;;;;;;;;;;;;;;17.80;60.70;99664.31;2267041;77;22204;-71
2023/03/06 07:47:15;;;;;;;;;;;;;;;17.80;60.81;99664.80;2253209;76;51707;-74
2023/03/06 07:50:16;;;;;;;;;;;;;;;17.87;60.72;99665.64;2294072;77;51525;-73
2023/03/06 07:53:21;;;;;;;;;;;;;;;17.93;60.70;99666.19;2266827;78;50447;-73
2023/03/06 07:56:21;;;;;;;;;;;;;;;17.98;60.63;99666.89;2279071;76;22266;-74
2023/03/06 07:59:23;;;;;;;;;;;;;;;17.98;60.47;99662.88;2266578;77;51582;-72
2023/03/06 08:02:24;;;;;;;;;;;;;;;17.98;60.37;99665.07;2268527;77;51569;-72
2023/03/06 08:05:26;;;;;;;;;;;;;;;17.83;60.31;99665.75;2283519;77;51441;-73
2023/03/06 08:08:28;;;;;;;;;;;;;;;17.84;59.70;99670.89;2249748;78;50493;-73
2023/03/06 08:11:30;;;;;;;;;;;;;;;17.78;59.65;99670.86;2264389;78;50064;-74
2023/03/06 08:14:33;;;;;;;;;;;;;;;17.72;59.54;99667.63;2262004;78;51513;-75
2023/03/06 08:17:34;;;;;;;;;;;;;;;17.69;59.82;99672.05;2262157;78;51555;-73
2023/03/06 08:20:36;;;;;;;;;;;;;;;17.76;59.73;99672.90;2261584;78;51601;-75
2023/03/06 08:23:38;;;;;;;;;;;;;;;17.73;59.93;99668.77;2263843;78;51031;-74
2023/03/06 08:26:39;;;;;;;;;;;;;;;17.79;59.92;99668.48;2261785;78;50751;-74
2023/03/06 08:29:42;;;;;;;;;;;;;;;17.75;58.82;99671.23;2262189;77;51452;-78
2023/03/06 08:32:44;;;;;;;;;;;;;;;17.54;55.59;99669.00;2243348;78;51587;-76
2023/03/06 08:35:45;;;;;;;;;;;;;;;17.54;53.95;99667.66;2264489;77;50682;-75
2023/03/06 08:38:47;;;;;;;;;;;;;;;17.60;54.11;99668.73;2249547;78;50728;-78
2023/03/06 08:41:49;;;;;;;;;;;;;;;17.62;54.61;99665.33;2230841;77;50479;-79
2023/03/06 08:44:50;;;;;;;;;;;;;;;17.62;55.15;99672.86;2270687;77;50819;-79
2023/03/06 08:47:52;;;;;;;;;;;;;;;17.66;55.23;99681.30;2294344;76;49776;-78
2023/03/06 08:50:53;;;;;;;;;;;;;;;17.67;55.56;99676.77;2251805;78;50629;-76
2023/03/06 08:53:55;;;;;;;;;;;;;;;17.68;55.73;99681.93;2264328;77;52008;-77
2023/03/06 08:56:57;;;;;;;;;;;;;;;17.73;55.81;99680.00;2298522;77;51512;-75
2023/03/06 08:59:58;;;;;;;;;;;;;;;17.76;55.98;99688.95;2303120;77;50769;-74
2023/03/06 09:03:00;;;;;;;;;;;;;;;17.80;55.86;99689.73;2249312;76;50737;-74
2023/03/06 09:06:02;;;;;;;;;;;;;;;17.82;55.76;99685.49;2244789;77;51554;-76
2023/03/06 09:09:03;;;;;;;;;;;;;;;17.79;54.62;99695.23;2247499;77;51513;-77
2023/03/06 09:12:05;;;;;;;;;;;;;;;17.80;54.49;99690.22;2204513;80;50976;-75
2023/03/06 09:15:07;;;;;;;;;;;;;;;17.84;54.34;99688.80;2255643;77;54059;-77
2023/03/06 09:18:08;;;;;;;;;;;;;;;17.88;54.35;99693.22;2232334;78;51527;-76
2023/03/06 09:21:10;;;;;;;;;;;;;;;17.89;54.70;99682.84;2247307;77;51669;-75
2023/03/06 09:24:11;;;;;;;;;;;;;;;17.91;54.61;99690.17;2294041;77;51639;-75
2023/03/06 09:27:13;;;;;;;;;;;;;;;17.89;54.85;99689.02;2305968;77;51534;-77
2023/03/06 09:30:15;;;;;;;;;;;;;;;17.90;54.97;99685.30;2305421;76;51534;-77
2023/03/06 09:33:17;;;;;;;;;;;;;;;17.91;55.01;99686.97;2305579;77;50810;-74
2023/03/06 09:36:19;;;;;;;;;;;;;;;17.95;54.90;99686.86;2307555;77;52371;-75
2023/03/06 09:39:21;;;;;;;;;;;;;;;18.01;54.94;99688.75;2305142;77;51529;-76
2023/03/06 09:42:23;;;;;;;;;;;;;;;17.96;55.18;99688.53;2305599;77;50768;-76
2023/03/06 09:45:24;;;;;;;;;;;;;;;17.95;55.24;99686.05;2305531;77;51575;-76
2023/03/06 09:48:27;;;;;;;;;;;;;;;17.92;55.35;99694.48;2279400;77;51272;-74
2023/03/06 09:51:33;;;;;;;;;;;;;;;17.87;55.00;99693.74;2280623;77;51506;-75
2023/03/06 09:54:43;;;;;;;;;;;;;;;17.80;54.64;99691.55;2274719;77;50765;-73
2023/03/06 09:58:01;;;;;;;;;;;;;;;17.77;54.30;99693.27;2262024;78;51505;-74
2023/03/06 10:01:04;;;;;;;;;;;;;;;17.72;54.02;99687.69;2245992;77;51173;-72
2023/03/06 10:04:07;;;;;;;;;;;;;;;17.68;53.62;99692.63;2236294;78;51580;-75
2023/03/06 10:07:19;;;;;;;;;;;;;;;17.66;53.46;99694.67;2249259;78;51484;-74
2023/03/06 10:10:25;;;;;;;;;;;;;;;17.63;53.27;99693.23;2249101;78;50774;-73
2023/03/06 10:13:40;;;;;;;;;;;;;;;17.61;53.24;99695.27;2249193;79;51546;-74
2023/03/06 10:16:42;;;;;;;;;;;;;;;17.61;53.25;99695.78;2249287;78;51569;-74
2023/03/06 10:19:46;;;;;;;;;;;;;;;17.64;53.29;99690.85;2249059;78;50756;-73
2023/03/06 10:22:52;;;;;;;;;;;;;;;17.63;53.38;99693.23;2249420;78;22151;-74
2023/03/06 10:26:00;;;;;;;;;;;;;;;17.67;53.35;99693.64;2217530;79;53330;-73
2023/03/06 10:29:10;;;;;;;;;;;;;;;17.68;53.53;99694.48;2248851;78;49865;-74
2023/03/06 10:32:16;;;;;;;;;;;;;;;17.67;53.30;99704.34;2236897;78;51435;-73
2023/03/06 10:35:18;;;;;;;;;;;;;;;17.67;53.17;99703.52;2208785;78;50739;-72
2023/03/06 10:38:27;;;;;;;;;;;;;;;17.69;53.24;99698.80;2215178;79;49744;-73
2023/03/06 10:41:29;;;;;;;;;;;;;;;17.72;53.23;99693.05;2238087;79;50816;-73
2023/03/06 10:44:31;;;;;;;;;;;;;;;17.73;53.35;99700.88;2238361;79;50525;-74
2023/03/06 10:47:36;;;;;;;;;;;;;;;17.77;53.23;99699.95;2238217;78;50502;-73
2023/03/06 10:50:38;;;;;;;;;;;;;;;17.77;53.07;99690.59;2236171;78;51068;-74
2023/03/06 10:53:41;;;;;;;;;;;;;;;17.74;53.15;99696.35;2286765;78;51531;-72
2023/03/06 10:56:43;;;;;;;;;;;;;;;17.74;53.32;99694.49;2287080;77;51392;-73
2023/03/06 10:59:52;;;;;;;;;;;;;;;17.72;53.39;99693.86;2286580;77;51545;-75
2023/03/06 11:03:04;;;;;;;;;;;;;;;17.70;53.52;99697.28;2231849;78;52817;-74
2023/03/06 11:06:10;;;;;;;;;;;;;;;17.68;53.63;99693.15;2176606;80;52350;-74
2023/03/06 11:09:21;;;;;;;;;;;;;;;17.64;53.82;99696.72;2199847;81;50472;-74
2023/03/06 11:12:27;;;;;;;;;;;;;;;17.62;53.93;99692.92;2200200;81;51553;-74
2023/03/06 11:15:29;;;;;;;;;;;;;;;17.62;54.10;99696.09;2178351;81;51252;-75
2023/03/06 11:18:33;;;;;;;;;;;;;;;17.62;54.20;99694.27;2201473;81;51678;-73
2023/03/06 11:21:35;;;;;;;;;;;;;;;17.66;54.24;99695.19;2201834;81;50939;-74
2023/03/06 11:24:39;;;;;;;;;;;;;;;17.70;54.16;99685.72;2202018;80;51475;-74
2023/03/06 11:27:41;;;;;;;;;;;;;;;17.78;54.02;99689.59;2179761;81;50033;-76
2023/03/06 11:30:44;;;;;;;;;;;;;;;17.80;54.05;99687.54;2207012;79;50846;-75
2023/03/06 11:33:49;;;;;;;;;;;;;;;17.81;54.04;99682.00;2226140;79;50723;-75
2023/03/06 11:36:54;;;;;;;;;;;;;;;17.84;54.03;99678.91;2203156;81;50732;-74
2023/03/06 11:40:13;;;;;;;;;;;;;;;17.83;54.02;99679.95;2182303;81;50106;-75
2023/03/06 11:43:31;;;;;;;;;;;;;;;17.86;53.94;99682.73;2202497;81;51523;-74
2023/03/06 11:46:40;;;;;;;;;;;;;;;17.82;54.00;99679.63;2202509;80;50742;-75
2023/03/06 11:49:58;;;;;;;;;;;;;;;17.80;54.07;99676.84;2204189;80;51572;-75
2023/03/06 11:53:01;;;;;;;;;;;;;;;17.83;53.99;99680.47;2204593;80;50891;-75
2023/03/06 11:56:21;;;;;;;;;;;;;;;17.79;54.14;99669.33;2203021;81;50759;-76
2023/03/06 11:59:43;;;;;;;;;;;;;;;17.84;54.15;99671.41;2203310;80;50810;-74
2023/03/06 12:03:02;;;;;;;;;;;;;;;17.84;54.15;99667.39;2235471;78;50187;-74
2023/03/06 12:06:05;;;;;;;;;;;;;;;17.87;54.26;99662.16;2218370;80;51776;-73
2023/03/06 12:09:14;;;;;;;;;;;;;;;17.87;54.39;99662.97;2217102;80;51527;-74
2023/03/06 12:12:29;;;;;;;;;;;;;;;17.86;54.50;99664.00;2216934;78;51656;-72
2023/03/06 12:15:47;;;;;;;;;;;;;;;17.92;54.49;99667.20;2217142;80;51554;-73
2023/03/06 12:19:02;;;;;;;;;;;;;;;17.95;54.47;99661.44;2216798;80;51596;-74
2023/03/06 12:22:22;;;;;;;;;;;;;;;17.94;54.48;99653.11;2216549;80;50484;-71
2023/03/06 12:25:25;;;;;;;;;;;;;;;17.99;54.38;99660.53;2216274;80;50792;-73
2023/03/06 12:28:28;;;;;;;;;;;;;;;17.92;54.55;99653.00;2216287;80;50485;-74
2023/03/06 12:31:32;;;;;;;;;;;;;;;17.80;52.28;99650.08;2225317;79;49695;-74
2023/03/06 12:34:38;;;;;;;;;;;;;;;17.81;52.83;99647.73;2215333;79;51941;-75
2023/03/06 12:37:47;;;;;;;;;;;;;;;17.83;52.97;99651.03;2200593;81;50530;-75
2023/03/06 12:41:02;;;;;;;;;;;;;;;17.82;53.33;99650.70;2200862;81;50845;-74
2023/03/06 12:44:22;;;;;;;;;;;;;;;17.83;53.58;99651.03;2200866;80;50701;-73
2023/03/06 12:47:25;;;;;;;;;;;;;;;17.83;53.73;99651.86;2200968;80;50745;-72
2023/03/06 12:50:31;;;;;;;;;;;;;;;17.81;53.84;99654.42;2200580;80;51521;-74
2023/03/06 12:53:33;;;;;;;;;;;;;;;17.83;53.91;99647.02;2200584;81;51457;-74
2023/03/06 12:56:34;;;;;;;;;;;;;;;17.84;54.03;99647.33;2190694;79;51391;-74
2023/03/06 12:59:37;;;;;;;;;;;;;;;17.87;54.10;99647.43;2214112;79;51496;-77
2023/03/06 13:02:49;;;;;;;;;;;;;;;17.92;53.63;99650.33;2234449;78;50363;-77
2023/03/06 13:05:55;;;;;;;;;;;;;;;17.94;53.92;99652.29;2214836;79;51578;-77
2023/03/06 13:09:04;;;;;;;;;;;;;;;17.96;53.50;99645.70;2249139;77;49706;-77
2023/03/06 13:12:13;;;;;;;;;;;;;;;17.93;53.62;99650.63;2220279;78;50757;-78
2023/03/06 13:15:19;;;;;;;;;;;;;;;17.93;53.78;99643.94;2220968;78;51754;-76
2023/03/06 13:18:25;;;;;;;;;;;;;;;17.91;53.83;99642.00;2220287;78;50437;-77
2023/03/06 13:21:43;;;;;;;;;;;;;;;17.86;53.98;99639.11;2251477;78;51504;-77
2023/03/06 13:24:45;;;;;;;;;;;;;;;17.83;54.04;99634.98;2230220;77;50631;-77
2023/03/06 13:27:48;;;;;;;;;;;;;;;17.81;54.19;99632.50;2208447;78;50736;-77
2023/03/06 13:30:50;;;;;;;;;;;;;;;17.82;54.19;99627.44;2192934;81;50759;-78
2023/03/06 13:33:53;;;;;;;;;;;;;;;17.79;54.34;99629.68;2175153;81;49478;-77
2023/03/06 13:36:56;;;;;;;;;;;;;;;17.80;54.42;99629.52;2198892;80;50523;-78
2023/03/06 13:40:00;;;;;;;;;;;;;;;17.83;54.49;99626.95;2198860;80;50353;-78
2023/03/06 13:43:06;;;;;;;;;;;;;;;17.89;54.49;99620.78;2199004;80;51368;-78
2023/03/06 13:46:15;;;;;;;;;;;;;;;17.93;54.50;99621.19;2176884;80;50936;-78
2023/03/06 13:49:21;;;;;;;;;;;;;;;17.94;54.45;99620.99;2190896;81;51528;-78
2023/03/06 13:52:24;;;;;;;;;;;;;;;17.93;54.46;99623.38;2198639;81;50775;-78
2023/03/06 13:55:30;;;;;;;;;;;;;;;17.91;54.55;99618.73;2231607;79;50773;-78
2023/03/06 13:58:42;;;;;;;;;;;;;;;17.89;54.61;99619.44;2238160;79;51715;-78
2023/03/06 14:01:48;;;;;;;;;;;;;;;17.91;54.62;99628.09;2236674;79;50454;-77
2023/03/06 14:04:53;;;;;;;;;;;;;;;17.86;54.69;99627.06;2263233;78;50500;-75
2023/03/06 14:08:02;;;;;;;;;;;;;;;17.89;54.66;99632.00;2267689;78;50477;-75
2023/03/06 14:11:04;;;;;;;;;;;;;;;17.75;54.95;99621.25;2235783;78;51196;-75
2023/03/06 14:14:05;;;;;;;;;;;;;;;17.68;55.19;99617.72;2222239;80;50759;-72
2023/03/06 14:17:09;;;;;;;;;;;;;;;17.64;55.32;99614.61;2222161;79;50748;-72
2023/03/06 14:20:14;;;;;;;;;;;;;;;17.71;55.25;99611.14;2221663;79;50772;-74
2023/03/06 14:23:23;;;;;;;;;;;;;;;17.80;55.09;99613.47;2199718;80;52402;-73
2023/03/06 14:26:25;;;;;;;;;;;;;;;17.84;55.06;99607.19;2222200;79;51569;-73
2023/03/06 14:29:27;;;;;;;;;;;;;;;17.89;55.03;99618.10;2222051;79;50511;-73
2023/03/06 14:32:29;;;;;;;;;;;;;;;17.91;55.00;99604.02;2195034;80;51489;-73
2023/03/06 14:35:31;;;;;;;;;;;;;;;17.90;55.03;99606.36;2171774;80;51700;-73
2023/03/06 14:38:34;;;;;;;;;;;;;;;17.90;55.00;99607.70;2226847;78;50744;-72
2023/03/06 14:41:35;;;;;;;;;;;;;;;17.89;55.03;99606.58;2250032;77;50564;-73
2023/03/06 14:44:37;;;;;;;;;;;;;;;17.89;55.05;99610.08;2228037;79;50419;-73
2023/03/06 14:47:39;;;;;;;;;;;;;;;17.88;55.05;99612.94;2205738;80;51173;-71
2023/03/06 14:50:40;;;;;;;;;;;;;;;17.88;55.12;99608.92;2203731;80;50083;-72
2023/03/06 14:53:43;;;;;;;;;;;;;;;17.82;55.20;99606.55;2228170;80;50746;-72
2023/03/06 14:56:46;;;;;;;;;;;;;;;17.78;55.37;99602.63;2228112;80;51492;-73
2023/03/06 14:59:49;;;;;;;;;;;;;;;17.76;55.48;99605.49;2227897;80;50754;-73
2023/03/06 15:02:51;;;;;;;;;;;;;;;17.79;55.49;99608.27;2228026;79;50799;-72
2023/03/06 15:05:52;;;;;;;;;;;;;;;17.82;55.50;99602.55;2228128;79;51524;-73
2023/03/06 15:08:55;;;;;;;;;;;;;;;17.81;55.56;99603.58;2236304;78;51537;-73
2023/03/06 15:11:58;;;;;;;;;;;;;;;17.73;52.61;99601.07;2283467;77;51503;-72
2023/03/06 15:15:02;;;;;;;;;;;;;;;17.49;48.61;99607.78;2307084;77;49619;-72
2023/03/06 15:18:05;;;;;;;;;;;;;;;17.36;46.98;99606.70;2305454;77;23631;-73
2023/03/06 15:21:08;;;;;;;;;;;;;;;17.32;47.34;99601.98;2305389;77;50178;-72
2023/03/06 15:24:23;;;;;;;;;;;;;;;17.31;48.25;99605.14;2302697;77;50472;-73
2023/03/06 15:27:26;;;;;;;;;;;;;;;17.33;48.27;99604.44;2228659;79;51662;-73
2023/03/06 15:30:29;;;;;;;;;;;;;;;17.27;49.01;99605.77;2230433;80;50436;-72
2023/03/06 15:33:31;;;;;;;;;;;;;;;17.29;49.45;99605.88;2230640;80;50761;-71
2023/03/06 15:36:33;;;;;;;;;;;;;;;17.33;49.74;99604.95;2230529;80;51433;-71
2023/03/06 15:39:38;;;;;;;;;;;;;;;17.39;49.90;99600.98;2248061;77;50523;-71
2023/03/06 15:42:40;;;;;;;;;;;;;;;17.41;50.00;99606.11;2262549;77;51488;-73
2023/03/06 15:45:41;;;;;;;;;;;;;;;17.45;50.27;99602.02;2241772;78;50577;-72
2023/03/06 15:48:47;;;;;;;;;;;;;;;17.49;50.40;99594.41;2266394;77;50709;-71
2023/03/06 15:51:49;;;;;;;;;;;;;;;17.54;50.50;99589.28;2263993;77;50763;-71
2023/03/06 15:54:50;;;;;;;;;;;;;;;17.55;50.73;99597.11;2242070;78;51480;-71
2023/03/06 15:57:52;;;;;;;;;;;;;;;17.61;50.79;99595.48;2266515;77;51537;-70
2023/03/06 16:00:54;;;;;;;;;;;;;;;17.68;50.79;99600.86;2266398;77;51515;-71